createdAt,value
2019-02-22T00:00:25.163Z,100894.33
2019-02-22T00:02:52.644Z,100893.84
2019-02-22T00:05:20.089Z,100900.05
2019-02-22T00:07:47.553Z,100901.17
2019-02-22T00:10:15.051Z,100897.88
2019-02-22T00:12:42.513Z,100901.19
2019-02-22T00:15:09.965Z,100907.45
2019-02-22T00:17:37.419Z,100905.80
2019-02-22T00:20:04.872Z,100909.55
2019-02-22T00:22:32.356Z,100916.58
2019-02-22T00:24:59.802Z,100920.59
2019-02-22T00:27:27.264Z,100919.41
2019-02-22T00:29:54.729Z,100918.95
2019-02-22T00:32:22.206Z,100928.59
2019-02-22T00:34:49.787Z,100923.48
2019-02-22T00:37:17.166Z,100924.16
2019-02-22T00:39:45.551Z,100919.27
2019-02-22T00:42:13.007Z,100927.75
2019-02-22T00:44:40.450Z,100923.27
2019-02-22T00:47:07.918Z,100923.26
2019-02-22T00:49:35.397Z,100920.66
2019-02-22T00:52:02.875Z,100926.49
2019-02-22T00:54:30.343Z,100927.64
2019-02-22T00:56:57.763Z,100926.87
2019-02-22T00:59:25.264Z,100930.20
2019-02-22T01:01:52.714Z,100927.16
2019-02-22T01:04:20.172Z,100930.56
2019-02-22T01:06:47.602Z,100940.91
2019-02-22T01:09:16.113Z,100944.92
2019-02-22T01:11:43.592Z,100943.58
2019-02-22T01:14:11.046Z,100940.19
2019-02-22T01:16:38.526Z,100956.19
2019-02-22T01:19:05.986Z,100964.73
2019-02-22T01:21:33.454Z,100963.66
2019-02-22T01:24:00.922Z,100958.38
2019-02-22T01:26:28.406Z,100959.08
2019-02-22T01:28:55.840Z,100956.86
2019-02-22T01:31:23.308Z,100958.61
2019-02-22T01:33:50.768Z,100961.71
2019-02-22T01:36:18.213Z,100963.70
2019-02-22T01:38:46.637Z,100965.66
2019-02-22T01:41:14.090Z,100963.66
2019-02-22T01:43:41.549Z,100969.32
2019-02-22T01:46:09.027Z,100971.91
2019-02-22T01:48:36.493Z,100975.07
2019-02-22T01:51:04.004Z,100987.89
2019-02-22T01:53:32.003Z,100981.09
2019-02-22T01:55:59.509Z,100978.88
2019-02-22T01:58:27.002Z,100980.28
2019-02-22T02:00:54.509Z,100980.94
2019-02-22T02:03:22.008Z,100974.48
2019-02-22T02:05:49.593Z,100977.98
2019-02-22T02:08:17.191Z,100971.78
2019-02-22T02:10:53.909Z,100971.45
2019-02-22T02:13:12.476Z,100973.64
2019-02-22T02:15:42.546Z,100980.05
2019-02-22T02:18:10.557Z,100979.94
2019-02-22T02:20:38.135Z,100979.98
2019-02-22T02:23:05.652Z,100978.41
2019-02-22T02:25:33.142Z,100978.70
2019-02-22T02:28:00.576Z,100987.84
2019-02-22T02:30:28.276Z,100985.02
2019-02-22T02:32:55.878Z,100985.91
2019-02-22T02:35:24.361Z,100994.74
2019-02-22T02:37:51.839Z,100996.61
2019-02-22T02:40:19.446Z,100989.86
2019-02-22T02:42:47.876Z,100996.00
2019-02-22T02:45:15.354Z,100994.84
2019-02-22T02:47:42.836Z,101003.06
2019-02-22T02:50:10.344Z,100996.20
2019-02-22T02:52:37.890Z,101002.44
2019-02-22T02:55:05.333Z,100999.50
2019-02-22T02:57:32.779Z,100992.45
2019-02-22T03:00:00.485Z,100988.87
2019-02-22T03:02:27.789Z,100988.44
2019-02-22T03:04:55.280Z,100999.11
2019-02-22T03:07:28.082Z,100992.36
2019-02-22T03:09:55.567Z,100992.09
2019-02-22T03:12:23.022Z,101001.10
2019-02-22T03:14:50.511Z,100999.02
2019-02-22T03:17:18.563Z,100996.86
2019-02-22T03:19:46.049Z,100993.84
2019-02-22T03:22:13.512Z,100997.87
2019-02-22T03:24:40.982Z,100999.59
2019-02-22T03:27:08.449Z,100989.23
2019-02-22T03:29:35.961Z,100998.57
2019-02-22T03:32:03.442Z,101002.97
2019-02-22T03:34:30.945Z,100995.48
2019-02-22T03:36:58.484Z,101001.56
2019-02-22T03:39:25.950Z,100996.22
2019-02-22T03:41:54.274Z,101003.33
2019-02-22T03:44:21.741Z,101010.98
2019-02-22T03:46:49.220Z,101012.63
2019-02-22T03:49:16.751Z,101015.22
2019-02-22T03:51:44.217Z,101018.77
2019-02-22T03:54:11.700Z,101025.22
2019-02-22T03:56:39.166Z,101033.16
2019-02-22T03:59:06.676Z,101034.63
2019-02-22T04:01:34.135Z,101047.08
2019-02-22T04:04:01.630Z,101053.80
2019-02-22T04:06:29.148Z,101052.08
2019-02-22T04:08:56.601Z,101066.18
2019-02-22T04:11:24.737Z,101072.86
2019-02-22T04:13:52.264Z,101080.59
2019-02-22T04:16:19.737Z,101084.08
2019-02-22T04:18:47.275Z,101085.20
2019-02-22T04:21:14.732Z,101079.74
2019-02-22T04:23:42.201Z,101082.73
2019-02-22T04:26:09.702Z,101082.05
2019-02-22T04:28:37.179Z,101084.06
2019-02-22T04:31:04.663Z,101085.52
2019-02-22T04:33:32.168Z,101085.59
2019-02-22T04:35:59.627Z,101092.59
2019-02-22T04:38:27.082Z,101083.34
2019-02-22T04:40:55.318Z,101085.73
2019-02-22T04:43:22.785Z,101085.09
2019-02-22T04:45:50.313Z,101084.62
2019-02-22T04:48:17.777Z,101091.08
2019-02-22T04:50:45.290Z,101091.13
2019-02-22T04:53:12.794Z,101095.00
2019-02-22T04:55:40.278Z,101089.89
2019-02-22T04:58:07.739Z,101090.52
2019-02-22T05:00:35.227Z,101096.95
2019-02-22T05:03:02.703Z,101088.09
2019-02-22T05:05:30.223Z,101093.36
2019-02-22T05:07:57.704Z,101092.48
2019-02-22T05:10:25.860Z,101096.59
2019-02-22T05:12:53.455Z,101098.80
2019-02-22T05:15:20.861Z,101097.10
2019-02-22T05:17:48.335Z,101102.38
2019-02-22T05:20:15.803Z,101098.36
2019-02-22T05:22:43.334Z,101097.54
2019-02-22T05:25:10.839Z,101104.27
2019-02-22T05:27:38.328Z,101103.81
2019-02-22T05:30:05.804Z,101102.50
2019-02-22T05:32:33.272Z,101105.16
2019-02-22T05:35:00.770Z,101105.32
2019-02-22T05:37:28.271Z,101111.77
2019-02-22T05:39:56.589Z,101113.75
2019-02-22T05:42:24.091Z,101116.80
2019-02-22T05:44:51.600Z,101115.19
2019-02-22T05:47:19.066Z,101108.15
2019-02-22T05:49:46.597Z,101120.30
2019-02-22T05:52:14.071Z,101126.66
2019-02-22T05:54:41.581Z,101126.84
2019-02-22T05:57:09.077Z,101138.66
2019-02-22T05:59:36.522Z,101134.83
2019-02-22T06:02:04.010Z,101131.39
2019-02-22T06:04:31.493Z,101137.31
2019-02-22T06:06:58.961Z,101142.39
2019-02-22T06:09:27.333Z,101147.10
2019-02-22T06:11:54.835Z,101157.73
2019-02-22T06:14:22.313Z,101150.34
2019-02-22T06:16:49.817Z,101151.41
2019-02-22T06:19:17.273Z,101164.22
2019-02-22T06:21:44.760Z,101163.64
2019-02-22T06:24:12.219Z,101169.28
2019-02-22T06:26:39.700Z,101166.36
2019-02-22T06:29:07.157Z,101176.19
2019-02-22T06:31:34.648Z,101178.72
2019-02-22T06:34:02.117Z,101185.91
2019-02-22T06:36:29.608Z,101184.45
2019-02-22T06:38:57.739Z,101185.89
2019-02-22T06:41:25.210Z,101185.45
2019-02-22T06:43:52.736Z,101179.89
2019-02-22T06:46:20.571Z,101189.21
2019-02-22T06:48:48.062Z,101193.59
2019-02-22T06:51:15.546Z,101195.87
2019-02-22T06:53:43.034Z,101197.88
2019-02-22T06:56:10.505Z,101198.02
2019-02-22T06:58:38.875Z,101203.78
2019-02-22T07:01:06.465Z,101205.88
2019-02-22T07:03:33.955Z,101202.22
2019-02-22T07:06:01.442Z,101198.34
2019-02-22T07:08:28.901Z,101201.07
2019-02-22T07:10:59.930Z,101208.48
2019-02-22T07:13:27.417Z,101215.28
2019-02-22T07:15:54.939Z,101217.48
2019-02-22T07:18:22.426Z,101227.14
2019-02-22T07:20:49.964Z,101231.25
2019-02-22T07:23:17.492Z,101223.44
2019-02-22T07:25:44.974Z,101227.25
2019-02-22T07:28:12.448Z,101227.81
2019-02-22T07:30:39.960Z,101233.86
2019-02-22T07:33:07.434Z,101236.83
2019-02-22T07:35:34.900Z,101237.80
2019-02-22T07:38:02.384Z,101244.84
2019-02-22T07:40:29.855Z,101243.13
2019-02-22T07:43:07.585Z,101244.77
2019-02-22T07:45:24.923Z,101246.55
2019-02-22T07:47:52.465Z,101251.11
2019-02-22T07:50:19.975Z,101251.17
2019-02-22T07:52:47.462Z,101258.03
2019-02-22T07:55:14.945Z,101262.22
2019-02-22T07:57:42.426Z,101263.94
2019-02-22T08:00:12.262Z,101270.09
2019-02-22T08:02:39.727Z,101269.52
2019-02-22T08:05:09.134Z,101268.64
2019-02-22T08:07:36.056Z,101276.81
2019-02-22T08:10:03.561Z,101284.04
2019-02-22T08:12:31.087Z,101290.59
2019-02-22T08:14:58.685Z,101287.75
2019-02-22T08:17:26.137Z,101290.77
2019-02-22T08:19:53.626Z,101301.05
2019-02-22T08:22:21.114Z,101310.25
2019-02-22T08:24:48.591Z,101315.03
2019-02-22T08:27:16.065Z,101319.54
2019-02-22T08:29:43.575Z,101317.06
2019-02-22T08:32:11.069Z,101330.25
2019-02-22T08:34:38.576Z,101329.10
2019-02-22T08:37:08.041Z,101332.41
2019-02-22T08:39:36.445Z,101336.10
2019-02-22T08:42:03.956Z,101341.05
2019-02-22T08:44:31.456Z,101342.00
2019-02-22T08:46:58.912Z,101350.00
2019-02-22T08:49:26.417Z,101350.11
2019-02-22T08:51:53.914Z,101357.84
2019-02-22T08:54:21.383Z,101360.97
2019-02-22T08:56:49.058Z,101370.05
2019-02-22T08:59:16.363Z,101376.07
2019-02-22T09:01:43.845Z,101368.20
2019-02-22T09:04:11.303Z,101376.98
2019-02-22T09:06:38.814Z,101375.14
2019-02-22T09:09:06.328Z,101375.42
2019-02-22T09:11:33.792Z,101382.24
2019-02-22T09:14:01.311Z,101383.63
2019-02-22T09:16:28.772Z,101383.58
2019-02-22T09:18:56.286Z,101378.50
2019-02-22T09:21:23.757Z,101373.39
2019-02-22T09:23:51.239Z,101387.65
2019-02-22T09:26:18.765Z,101391.13
2019-02-22T09:28:46.267Z,101396.77
2019-02-22T09:31:13.771Z,101393.23
2019-02-22T09:33:41.248Z,101395.08
2019-02-22T09:36:08.765Z,101399.52
2019-02-22T09:38:36.277Z,101391.47
2019-02-22T09:41:03.815Z,101392.80
2019-02-22T09:43:31.756Z,101400.67
2019-02-22T09:45:59.225Z,101408.72
2019-02-22T09:48:26.762Z,101407.97
2019-02-22T09:50:54.238Z,101402.95
2019-02-22T09:53:21.726Z,101404.99
2019-02-22T09:55:49.391Z,101405.88
2019-02-22T09:58:16.910Z,101408.16
2019-02-22T10:00:44.413Z,101408.48
2019-02-22T10:03:11.945Z,101409.77
2019-02-22T10:05:39.448Z,101406.71
2019-02-22T10:08:06.967Z,101412.34
2019-02-22T10:10:34.506Z,101408.53
2019-02-22T10:13:02.301Z,101405.77
2019-02-22T10:15:29.813Z,101407.66
2019-02-22T10:17:57.338Z,101400.17
2019-02-22T10:20:26.321Z,101409.95
2019-02-22T10:22:53.967Z,101414.39
2019-02-22T10:25:21.671Z,101414.97
2019-02-22T10:27:49.127Z,101416.75
2019-02-22T10:30:16.634Z,101420.42
2019-02-22T10:32:44.239Z,101420.29
2019-02-22T10:35:11.728Z,101424.18
2019-02-22T10:37:39.362Z,101426.00
2019-02-22T10:40:06.903Z,101426.08
2019-02-22T10:42:36.027Z,101426.47
2019-02-22T10:45:03.557Z,101432.55
2019-02-22T10:47:31.060Z,101434.46
2019-02-22T10:49:58.568Z,101436.50
2019-02-22T10:52:26.075Z,101430.97
2019-02-22T10:54:54.318Z,101436.80
2019-02-22T10:57:21.921Z,101439.09
2019-02-22T10:59:49.647Z,101435.41
2019-02-22T11:02:17.120Z,101432.74
2019-02-22T11:04:44.590Z,101437.81
2019-02-22T11:07:12.130Z,101433.43
2019-02-22T11:09:39.689Z,101428.16
2019-02-22T11:12:07.342Z,101420.34
2019-02-22T11:14:34.881Z,101428.42
2019-02-22T11:17:02.620Z,101423.84
2019-02-22T11:19:30.164Z,101426.59
2019-02-22T11:21:57.725Z,101436.52
2019-02-22T11:24:25.212Z,101431.35
2019-02-22T11:26:52.731Z,101429.41
2019-02-22T11:29:20.318Z,101427.30
2019-02-22T11:31:47.854Z,101424.36
2019-02-22T11:34:15.405Z,101428.19
2019-02-22T11:36:42.885Z,101430.16
2019-02-22T11:39:10.636Z,101433.85
2019-02-22T11:41:38.282Z,101433.20
2019-02-22T11:44:09.507Z,101425.52
2019-02-22T11:46:37.346Z,101443.56
2019-02-22T11:49:04.984Z,101442.80
2019-02-22T11:51:32.648Z,101444.73
2019-02-22T11:54:00.331Z,101444.78
2019-02-22T11:56:27.819Z,101442.05
2019-02-22T11:58:55.336Z,101441.16
2019-02-22T12:01:22.884Z,101443.63
2019-02-22T12:03:50.482Z,101451.07
2019-02-22T12:06:18.046Z,101456.66
2019-02-22T12:08:45.787Z,101459.52
2019-02-22T12:11:13.323Z,101457.17
2019-02-22T12:13:41.344Z,101454.42
2019-02-22T12:16:08.837Z,101455.13
2019-02-22T12:18:36.677Z,101450.61
2019-02-22T12:21:05.128Z,101449.73
2019-02-22T12:23:32.703Z,101460.41
2019-02-22T12:26:00.251Z,101460.28
2019-02-22T12:28:43.530Z,101461.23
2019-02-22T12:31:11.169Z,101468.88
2019-02-22T12:33:38.681Z,101462.07
2019-02-22T12:36:06.187Z,101463.52
2019-02-22T12:38:33.713Z,101460.03
2019-02-22T12:41:03.060Z,101473.06
2019-02-22T12:43:30.545Z,101473.17
2019-02-22T12:45:58.092Z,101477.75
2019-02-22T12:48:25.544Z,101475.70
2019-02-22T12:50:53.012Z,101474.89
2019-02-22T12:53:20.519Z,101483.86
2019-02-22T12:55:47.976Z,101485.04
2019-02-22T12:58:15.873Z,101487.22
2019-02-22T13:00:43.348Z,101486.59
2019-02-22T13:03:10.842Z,101485.61
2019-02-22T13:05:38.310Z,101488.28
2019-02-22T13:08:05.818Z,101482.83
2019-02-22T13:10:33.331Z,101481.88
2019-02-22T13:13:00.868Z,101483.02
2019-02-22T13:15:28.394Z,101476.09
2019-02-22T13:17:55.898Z,101474.93
2019-02-22T13:20:23.369Z,101480.84
2019-02-22T13:22:50.848Z,101475.45
2019-02-22T13:25:18.334Z,101478.55
2019-02-22T13:27:46.403Z,101480.41
2019-02-22T13:30:13.840Z,101484.11
2019-02-22T13:32:41.300Z,101484.69
2019-02-22T13:35:10.985Z,101486.16
2019-02-22T13:37:37.300Z,101494.80
2019-02-22T13:40:04.863Z,101490.69
2019-02-22T13:42:32.345Z,101485.72
2019-02-22T13:44:59.870Z,101491.88
2019-02-22T13:47:27.360Z,101497.94
2019-02-22T13:49:54.847Z,101493.22
2019-02-22T13:52:22.304Z,101498.72
2019-02-22T13:54:49.756Z,101501.14
2019-02-22T13:57:17.232Z,101507.98
2019-02-22T13:59:44.677Z,101502.59
2019-02-22T14:02:14.032Z,101508.29
2019-02-22T14:04:41.590Z,101507.91
2019-02-22T14:07:09.069Z,101510.61
2019-02-22T14:09:36.566Z,101491.97
2019-02-22T14:12:04.066Z,101493.98
2019-02-22T14:14:31.521Z,101492.20
2019-02-22T14:16:58.995Z,101488.42
2019-02-22T14:19:26.471Z,101494.09
2019-02-22T14:21:53.923Z,101488.64
2019-02-22T14:24:21.407Z,101499.46
2019-02-22T14:26:48.880Z,101492.78
2019-02-22T14:29:16.358Z,101492.16
2019-02-22T14:31:43.862Z,101494.55
2019-02-22T14:34:11.313Z,101484.20
2019-02-22T14:36:38.825Z,101482.42
2019-02-22T14:39:06.390Z,101493.36
2019-02-22T14:41:33.810Z,101492.78
2019-02-22T14:44:01.257Z,101486.38
2019-02-22T14:46:28.757Z,101482.05
2019-02-22T14:48:56.184Z,101488.72
2019-02-22T14:51:23.669Z,101496.05
2019-02-22T14:53:51.166Z,101493.44
2019-02-22T14:56:18.654Z,101495.91
2019-02-22T14:58:46.175Z,101502.59
2019-02-22T15:01:13.648Z,101496.89
2019-02-22T15:03:41.287Z,101507.11
2019-02-22T15:06:08.737Z,101505.97
2019-02-22T15:08:36.240Z,101514.04
2019-02-22T15:11:03.814Z,101507.36
2019-02-22T15:13:31.312Z,101513.49
2019-02-22T15:16:03.668Z,101513.04
2019-02-22T15:18:28.141Z,101511.58
2019-02-22T15:20:55.598Z,101514.67
2019-02-22T15:23:23.067Z,101520.34
2019-02-22T15:25:50.511Z,101518.00
2019-02-22T15:28:18.582Z,101523.22
2019-02-22T15:30:46.443Z,101530.45
2019-02-22T15:33:13.918Z,101530.50
2019-02-22T15:35:41.458Z,101528.60
2019-02-22T15:38:10.097Z,101532.36
2019-02-22T15:40:39.085Z,101531.78
2019-02-22T15:43:03.935Z,101529.50
2019-02-22T15:45:31.490Z,101526.14
2019-02-22T15:47:58.955Z,101528.17
2019-02-22T15:50:26.454Z,101527.20
2019-02-22T15:52:53.928Z,101525.83
2019-02-22T15:55:21.359Z,101525.89
2019-02-22T15:57:49.226Z,101529.91
2019-02-22T16:00:23.004Z,101526.97
2019-02-22T16:02:50.439Z,101533.91
2019-02-22T16:05:17.972Z,101524.11
2019-02-22T16:07:45.437Z,101520.11
2019-02-22T16:10:13.189Z,101509.30
2019-02-22T16:12:40.635Z,101519.55
2019-02-22T16:15:08.110Z,101521.19
2019-02-22T16:17:35.589Z,101523.58
2019-02-22T16:20:03.054Z,101519.88
2019-02-22T16:22:30.510Z,101512.86
2019-02-22T16:24:57.962Z,101522.98
2019-02-22T16:27:25.460Z,101530.27
2019-02-22T16:29:52.989Z,101527.73
2019-02-22T16:32:20.480Z,101535.09
2019-02-22T16:34:47.919Z,101540.83
2019-02-22T16:37:15.414Z,101542.98
2019-02-22T16:39:42.856Z,101541.97
2019-02-22T16:42:10.324Z,101542.95
2019-02-22T16:44:37.771Z,101550.67
2019-02-22T16:47:05.244Z,101554.37
2019-02-22T16:49:32.762Z,101555.73
2019-02-22T16:52:00.189Z,101552.83
2019-02-22T16:54:27.669Z,101553.45
2019-02-22T16:56:55.144Z,101556.02
2019-02-22T16:59:22.612Z,101564.12
2019-02-22T17:01:50.467Z,101568.80
2019-02-22T17:04:18.827Z,101567.53
2019-02-22T17:06:45.424Z,101568.73
2019-02-22T17:09:12.902Z,101566.88
2019-02-22T17:11:40.810Z,101577.64
2019-02-22T17:14:08.343Z,101577.22
2019-02-22T17:16:45.593Z,101582.87
2019-02-22T17:19:03.438Z,101591.05
2019-02-22T17:21:30.911Z,101602.47
2019-02-22T17:23:58.417Z,101596.13
2019-02-22T17:26:25.949Z,101597.77
2019-02-22T17:28:54.335Z,101602.30
2019-02-22T17:31:21.816Z,101608.11
2019-02-22T17:33:49.416Z,101608.74
2019-02-22T17:36:26.402Z,101609.48
2019-02-22T17:38:44.340Z,101604.41
2019-02-22T17:41:13.131Z,101597.09
2019-02-22T17:43:40.666Z,101594.70
2019-02-22T17:46:08.155Z,101594.58
2019-02-22T17:48:35.863Z,101588.77
2019-02-22T17:51:03.381Z,101592.08
2019-02-22T17:53:30.862Z,101601.09
2019-02-22T17:55:58.360Z,101599.28
2019-02-22T17:58:25.899Z,101586.20
2019-02-22T18:00:53.388Z,101592.56
2019-02-22T18:03:22.474Z,101590.46
2019-02-22T18:05:50.064Z,101600.95
2019-02-22T18:08:17.520Z,101606.48
2019-02-22T18:10:45.017Z,101615.59
2019-02-22T18:13:12.526Z,101615.28
2019-02-22T18:15:39.989Z,101612.03
2019-02-22T18:18:07.487Z,101612.31
2019-02-22T18:20:34.976Z,101616.36
2019-02-22T18:23:02.459Z,101614.78
2019-02-22T18:25:29.913Z,101620.97
2019-02-22T18:27:57.403Z,101615.85
2019-02-22T18:30:24.914Z,101620.14
2019-02-22T18:32:52.377Z,101619.25
2019-02-22T18:35:19.836Z,101619.83
2019-02-22T18:37:47.309Z,101622.40
2019-02-22T18:40:14.781Z,101616.97
2019-02-22T18:42:42.305Z,101606.59
2019-02-22T18:45:09.811Z,101613.37
2019-02-22T18:47:37.279Z,101612.87
2019-02-22T18:50:04.745Z,101613.56
2019-02-22T18:52:32.224Z,101613.22
2019-02-22T18:54:59.666Z,101604.70
2019-02-22T18:57:27.152Z,101599.97
2019-02-22T18:59:54.746Z,101590.69
2019-02-22T19:02:22.760Z,101595.02
2019-02-22T19:04:50.279Z,101593.92
2019-02-22T19:07:17.781Z,101606.02
2019-02-22T19:09:45.252Z,101599.02
2019-02-22T19:12:12.712Z,101593.48
2019-02-22T19:14:40.212Z,101592.39
2019-02-22T19:17:07.656Z,101593.43
2019-02-22T19:19:35.111Z,101594.28
2019-02-22T19:22:02.779Z,101589.00
2019-02-22T19:24:30.246Z,101576.08
2019-02-22T19:26:57.777Z,101577.80
2019-02-22T19:29:25.225Z,101581.12
2019-02-22T19:31:53.260Z,101590.52
2019-02-22T19:34:20.734Z,101597.55
2019-02-22T19:36:48.219Z,101598.83
2019-02-22T19:39:15.716Z,101606.16
2019-02-22T19:41:43.180Z,101614.36
2019-02-22T19:44:10.640Z,101619.70
2019-02-22T19:46:38.125Z,101621.67
2019-02-22T19:49:05.605Z,101630.34
2019-02-22T19:51:33.067Z,101633.89
2019-02-22T19:54:00.519Z,101629.08
2019-02-22T19:56:27.959Z,101630.62
2019-02-22T19:58:55.468Z,101631.62
2019-02-22T20:01:23.818Z,101634.74
2019-02-22T20:03:51.298Z,101637.78
2019-02-22T20:06:18.784Z,101637.50
2019-02-22T20:08:46.233Z,101643.66
2019-02-22T20:11:13.719Z,101648.83
2019-02-22T20:13:41.148Z,101650.59
2019-02-22T20:16:08.660Z,101646.59
2019-02-22T20:18:36.139Z,101642.33
2019-02-22T20:21:03.586Z,101650.34
2019-02-22T20:23:31.576Z,101648.59
2019-02-22T20:25:59.268Z,101646.00
2019-02-22T20:28:26.771Z,101640.95
2019-02-22T20:30:54.810Z,101644.18
2019-02-22T20:33:22.292Z,101637.13
2019-02-22T20:35:49.829Z,101632.47
2019-02-22T20:38:17.319Z,101637.78
2019-02-22T20:40:44.784Z,101634.63
2019-02-22T20:43:12.238Z,101645.06
2019-02-22T20:45:40.518Z,101650.34
2019-02-22T20:48:08.013Z,101653.83
2019-02-22T20:50:35.493Z,101641.80
2019-02-22T20:53:03.369Z,101644.12
2019-02-22T20:55:30.814Z,101649.08
2019-02-22T20:57:58.308Z,101657.28
2019-02-22T21:00:26.513Z,101662.88
2019-02-22T21:02:55.067Z,101661.66
2019-02-22T21:05:22.835Z,101657.06
2019-02-22T21:07:50.362Z,101664.15
2019-02-22T21:10:19.776Z,101661.92
2019-02-22T21:12:47.212Z,101657.88
2019-02-22T21:15:14.695Z,101664.88
2019-02-22T21:17:42.133Z,101669.52
2019-02-22T21:20:12.471Z,101674.25
2019-02-22T21:22:39.936Z,101670.47
2019-02-22T21:25:08.275Z,101675.68
2019-02-22T21:27:35.859Z,101676.01
2019-02-22T21:30:03.358Z,101670.63
2019-02-22T21:32:30.828Z,101670.08
2019-02-22T21:34:58.298Z,101663.59
2019-02-22T21:37:25.771Z,101670.19
2019-02-22T21:39:53.285Z,101667.02
2019-02-22T21:42:21.506Z,101670.51
2019-02-22T21:44:49.136Z,101675.82
2019-02-22T21:47:16.605Z,101678.34
2019-02-22T21:49:44.069Z,101681.64
2019-02-22T21:52:11.581Z,101685.25
2019-02-22T21:54:39.146Z,101681.59
2019-02-22T21:57:06.640Z,101688.73
2019-02-22T21:59:34.071Z,101679.44
2019-02-22T22:02:01.543Z,101684.21
2019-02-22T22:04:29.026Z,101688.41
2019-02-22T22:06:56.474Z,101682.64
2019-02-22T22:09:23.958Z,101683.80
2019-02-22T22:11:51.492Z,101677.52
2019-02-22T22:14:18.952Z,101675.91
2019-02-22T22:19:20.254Z,101681.65
2019-02-22T22:21:47.701Z,101671.11
2019-02-22T22:24:15.189Z,101674.81
2019-02-22T22:26:42.667Z,101673.94
2019-02-22T22:29:10.126Z,101681.92
2019-02-22T22:31:37.592Z,101683.08
2019-02-22T22:34:05.445Z,101688.41
2019-02-22T22:36:32.890Z,101689.49
2019-02-22T22:39:00.359Z,101682.90
2019-02-22T22:41:27.871Z,101687.93
2019-02-22T22:43:55.862Z,101689.35
2019-02-22T22:46:23.321Z,101690.34
2019-02-22T22:48:50.971Z,101691.37
2019-02-22T22:51:18.300Z,101688.42
2019-02-22T22:53:45.780Z,101687.16
2019-02-22T22:56:13.276Z,101685.38
2019-02-22T22:58:40.769Z,101677.05
2019-02-22T23:01:08.339Z,101679.86
2019-02-22T23:03:35.889Z,101679.67
2019-02-22T23:06:03.280Z,101685.97
2019-02-22T23:08:30.775Z,101683.41
2019-02-22T23:10:58.605Z,101681.98
2019-02-22T23:13:26.206Z,101683.70
2019-02-22T23:15:53.800Z,101679.97
2019-02-22T23:18:21.333Z,101680.23
2019-02-22T23:20:48.799Z,101679.44
2019-02-22T23:23:16.239Z,101674.70
2019-02-22T23:25:43.712Z,101680.31
2019-02-22T23:28:11.165Z,101680.66
2019-02-22T23:30:38.626Z,101684.16
2019-02-22T23:33:06.103Z,101684.25
2019-02-22T23:35:33.540Z,101693.51
2019-02-22T23:38:01.002Z,101688.64
2019-02-22T23:40:28.842Z,101691.78
2019-02-22T23:42:56.616Z,101694.03
2019-02-22T23:45:24.176Z,101690.12
2019-02-22T23:47:51.678Z,101693.11
2019-02-22T23:50:19.133Z,101693.81
2019-02-22T23:52:46.597Z,101689.67
2019-02-22T23:55:14.399Z,101691.09
2019-02-22T23:57:43.572Z,101692.56
